createdAt,value
2018-01-23T00:02:11.895Z,127.37
2018-01-23T00:04:39.514Z,134.17
2018-01-23T00:07:07.964Z,142.63
2018-01-23T00:09:35.579Z,129.07
2018-01-23T00:12:03.183Z,135.20
2018-01-23T00:14:30.810Z,126.30
2018-01-23T00:16:58.406Z,122.70
2018-01-23T00:19:26.070Z,138.63
2018-01-23T00:21:53.735Z,136.63
2018-01-23T00:24:21.346Z,126.83
2018-01-23T00:26:48.959Z,125.53
2018-01-23T00:29:16.542Z,126.90
2018-01-23T00:31:44.914Z,135.97
2018-01-23T00:34:13.267Z,136.20
2018-01-23T00:36:40.938Z,132.63
2018-01-23T00:39:08.526Z,116.57
2018-01-23T00:41:36.982Z,150.67
2018-01-23T00:44:04.647Z,134.10
2018-01-23T00:46:32.307Z,131.30
2018-01-23T00:48:59.970Z,126.60
2018-01-23T00:51:27.580Z,117.03
2018-01-23T00:53:55.162Z,140.60
2018-01-23T00:56:22.770Z,139.90
2018-01-23T00:58:51.247Z,129.83
2018-01-23T01:01:18.899Z,136.87
2018-01-23T01:03:46.562Z,141.17
2018-01-23T01:06:14.226Z,130.93
2018-01-23T01:08:41.835Z,126.93
2018-01-23T01:11:09.422Z,131.60
2018-01-23T01:13:37.030Z,131.03
2018-01-23T01:16:05.386Z,141.90
2018-01-23T01:18:32.995Z,129.00
2018-01-23T01:21:00.611Z,126.90
2018-01-23T01:23:28.278Z,122.80
2018-01-23T01:25:55.938Z,131.43
2018-01-23T01:28:23.602Z,133.43
2018-01-23T01:30:51.195Z,157.20
2018-01-23T01:33:19.642Z,121.10
2018-01-23T01:35:47.307Z,130.80
2018-01-23T01:38:14.915Z,125.17
2018-01-23T01:40:42.531Z,132.00
2018-01-23T01:43:10.122Z,127.57
2018-01-23T01:45:38.570Z,137.93
2018-01-23T01:48:07.662Z,137.63
2018-01-23T01:50:35.277Z,150.17
2018-01-23T01:53:02.872Z,136.70
2018-01-23T01:55:30.492Z,137.03
2018-01-23T01:57:58.110Z,128.07
2018-01-23T02:00:25.775Z,133.13
2018-01-23T02:02:53.368Z,128.63
2018-01-23T02:05:21.734Z,146.57
2018-01-23T02:07:50.096Z,132.40
2018-01-23T02:10:17.712Z,129.37
2018-01-23T02:12:45.312Z,146.30
2018-01-23T02:15:12.928Z,144.17
2018-01-23T02:17:40.556Z,149.67
2018-01-23T02:20:09.023Z,118.20
2018-01-23T02:22:36.606Z,136.33
2018-01-23T02:25:05.067Z,134.20
2018-01-23T02:27:32.650Z,130.43
2018-01-23T02:30:01.033Z,128.83
2018-01-23T02:32:29.486Z,129.30
2018-01-23T02:34:57.152Z,130.47
2018-01-23T02:37:24.815Z,115.43
2018-01-23T02:39:52.407Z,135.50
2018-01-23T02:42:20.788Z,131.20
2018-01-23T02:44:49.236Z,124.57
2018-01-23T02:47:16.900Z,128.40
2018-01-23T02:49:44.562Z,139.20
2018-01-23T02:52:12.171Z,130.33
2018-01-23T02:54:39.786Z,137.40
2018-01-23T02:57:07.447Z,137.50
2018-01-23T02:59:35.037Z,145.33
2018-01-23T03:02:03.423Z,136.97
2018-01-23T03:04:31.774Z,128.73
2018-01-23T03:06:59.388Z,129.13
2018-01-23T03:09:26.974Z,130.83
2018-01-23T03:11:54.654Z,120.90
2018-01-23T03:14:22.314Z,117.87
2018-01-23T03:16:49.982Z,138.70
2018-01-23T03:19:17.599Z,133.37
2018-01-23T03:21:45.207Z,139.27
2018-01-23T03:24:12.866Z,141.43
2018-01-23T03:26:40.450Z,129.77
2018-01-23T03:29:08.824Z,151.30
2018-01-23T03:31:37.183Z,133.77
2018-01-23T03:34:04.799Z,145.23
2018-01-23T03:36:32.387Z,130.53
2018-01-23T03:39:00.070Z,143.90
2018-01-23T03:41:28.462Z,141.57
2018-01-23T03:43:56.114Z,153.27
2018-01-23T03:46:23.766Z,133.30
2018-01-23T03:48:51.506Z,148.87
2018-01-23T03:51:19.202Z,129.37
2018-01-23T03:53:46.810Z,139.77
2018-01-23T03:56:14.398Z,124.70
2018-01-23T03:58:42.091Z,139.87
2018-01-23T04:01:09.755Z,122.57
2018-01-23T04:03:37.482Z,142.23
2018-01-23T04:06:05.067Z,131.60
2018-01-23T04:08:32.718Z,134.07
2018-01-23T04:11:00.314Z,145.07
2018-01-23T04:13:28.674Z,135.40
2018-01-23T04:15:56.289Z,128.10
2018-01-23T04:18:23.910Z,133.87
2018-01-23T04:20:51.575Z,135.90
2018-01-23T04:23:19.230Z,150.23
2018-01-23T04:25:47.626Z,147.18
2018-01-23T04:28:15.242Z,131.80
2018-01-23T04:30:42.851Z,140.83
2018-01-23T04:33:11.314Z,152.47
2018-01-23T04:35:38.963Z,136.53
2018-01-23T04:38:06.554Z,147.07
2018-01-23T04:40:34.295Z,158.30
2018-01-23T04:43:01.887Z,131.93
2018-01-23T04:45:30.283Z,134.90
2018-01-23T04:47:57.871Z,130.43
2018-01-23T04:50:25.470Z,136.20
2018-01-23T04:52:53.079Z,146.53
2018-01-23T04:55:20.675Z,158.20
2018-01-23T04:57:48.454Z,141.60
2018-01-23T05:00:16.043Z,130.30
2018-01-23T05:02:44.499Z,150.70
2018-01-23T05:05:12.163Z,169.23
2018-01-23T05:07:39.823Z,145.17
2018-01-23T05:10:08.179Z,156.40
2018-01-23T05:12:35.866Z,161.82
2018-01-23T05:15:03.451Z,151.43
2018-01-23T05:17:31.826Z,150.57
2018-01-23T05:20:00.287Z,143.07
2018-01-23T05:22:27.895Z,140.20
2018-01-23T05:24:55.510Z,140.40
2018-01-23T05:27:23.118Z,166.50
2018-01-23T05:29:50.702Z,132.13
2018-01-23T05:32:18.306Z,135.90
2018-01-23T05:34:46.675Z,146.00
2018-01-23T05:37:14.324Z,147.93
2018-01-23T05:39:41.900Z,146.83
2018-01-23T05:42:10.382Z,150.53
2018-01-23T05:44:38.043Z,145.40
2018-01-23T05:47:05.638Z,139.53
2018-01-23T05:49:34.082Z,144.90
2018-01-23T05:52:01.673Z,148.10
2018-01-23T05:54:30.159Z,132.40
2018-01-23T05:56:57.753Z,149.67
2018-01-23T05:59:25.450Z,148.00
2018-01-23T06:01:53.934Z,164.07
2018-01-23T06:04:22.418Z,140.90
2018-01-23T06:06:50.898Z,143.87
2018-01-23T06:09:18.506Z,135.33
2018-01-23T06:11:46.122Z,147.80
2018-01-23T06:14:13.730Z,157.83
2018-01-23T06:16:41.315Z,163.43
2018-01-23T06:19:09.007Z,146.13
2018-01-23T06:21:37.415Z,141.32
2018-01-23T06:24:05.039Z,150.32
2018-01-23T06:26:33.441Z,139.68
2018-01-23T06:29:01.098Z,138.68
2018-01-23T06:31:29.507Z,146.18
2018-01-23T06:33:57.863Z,152.90
2018-01-23T06:36:25.515Z,148.87
2018-01-23T06:38:53.179Z,157.93
2018-01-23T06:41:20.837Z,153.37
2018-01-23T06:43:48.571Z,153.33
2018-01-23T06:46:16.233Z,142.90
2018-01-23T06:48:43.850Z,142.57
2018-01-23T06:51:12.311Z,152.47
2018-01-23T06:53:40.690Z,148.87
2018-01-23T06:56:09.107Z,154.52
2018-01-23T06:58:36.831Z,162.75
2018-01-23T07:01:05.238Z,160.15
2018-01-23T07:03:33.599Z,154.40
2018-01-23T07:06:02.009Z,158.90
2018-01-23T07:08:29.643Z,151.82
2018-01-23T07:10:57.291Z,164.05
2018-01-23T07:13:25.784Z,174.35
2018-01-23T07:15:54.271Z,153.82
2018-01-23T07:18:22.675Z,175.48
2018-01-23T07:20:50.373Z,157.88
2018-01-23T07:23:18.071Z,160.00
2018-01-23T07:25:45.667Z,168.47
2018-01-23T07:28:13.394Z,164.00
2018-01-23T07:30:41.879Z,172.55
2018-01-23T07:33:10.287Z,171.48
2018-01-23T07:35:37.899Z,150.95
2018-01-23T07:38:06.302Z,162.23
2018-01-23T07:40:34.682Z,160.93
2018-01-23T07:43:03.086Z,153.68
2018-01-23T07:45:30.734Z,180.32
2018-01-23T07:47:58.482Z,184.43
2018-01-23T07:50:26.935Z,156.60
2018-01-23T07:52:54.575Z,175.27
2018-01-23T07:55:22.190Z,159.82
2018-01-23T07:57:50.570Z,166.43
2018-01-23T08:00:19.061Z,164.15
2018-01-23T08:02:46.722Z,168.80
2018-01-23T08:05:15.131Z,150.98
2018-01-23T08:07:42.742Z,153.90
2018-01-23T08:10:10.371Z,144.75
2018-01-23T08:12:37.987Z,155.40
2018-01-23T08:15:05.646Z,174.97
2018-01-23T08:17:34.031Z,170.05
2018-01-23T08:20:01.634Z,168.70
2018-01-23T08:22:29.252Z,165.90
2018-01-23T08:24:56.868Z,185.20
2018-01-23T08:27:24.451Z,170.73
2018-01-23T08:29:52.058Z,186.37
2018-01-23T08:32:20.514Z,161.27
2018-01-23T08:34:48.119Z,174.63
2018-01-23T08:37:15.702Z,178.50
2018-01-23T08:39:43.403Z,184.90
2018-01-23T08:42:12.499Z,163.57
2018-01-23T08:44:41.614Z,195.67
2018-01-23T08:47:10.121Z,183.63
2018-01-23T08:49:38.471Z,173.70
2018-01-23T08:52:06.847Z,183.00
2018-01-23T08:54:34.486Z,178.97
2018-01-23T08:57:02.125Z,186.90
2018-01-23T08:59:29.797Z,154.77
2018-01-23T09:01:57.411Z,181.13
2018-01-23T09:04:25.767Z,157.57
2018-01-23T09:06:53.426Z,154.53
2018-01-23T09:09:21.010Z,132.37
2018-01-23T09:11:49.387Z,150.20
2018-01-23T09:14:17.738Z,126.43
2018-01-23T09:16:46.026Z,131.97
2018-01-23T09:19:13.611Z,140.73
2018-01-23T09:21:41.982Z,136.70
2018-01-23T09:24:10.446Z,109.93
2018-01-23T09:26:38.041Z,109.20
2018-01-23T09:29:05.671Z,107.03
2018-01-23T09:31:33.256Z,101.73
2018-01-23T09:34:01.627Z,104.30
2018-01-23T09:36:29.978Z,108.90
2018-01-23T09:38:58.367Z,130.67
2018-01-23T09:41:26.036Z,115.43
2018-01-23T09:43:53.694Z,129.53
2018-01-23T09:46:21.279Z,143.00
2018-01-23T09:48:49.743Z,121.83
2018-01-23T09:51:17.398Z,136.43
2018-01-23T09:53:45.062Z,136.37
2018-01-23T09:56:12.722Z,151.53
2018-01-23T09:58:41.207Z,132.43
2018-01-23T10:01:08.871Z,150.77
2018-01-23T10:03:36.479Z,138.03
2018-01-23T10:06:04.100Z,136.50
2018-01-23T10:08:31.711Z,119.33
2018-01-23T10:10:59.299Z,133.37
2018-01-23T10:13:26.979Z,134.30
2018-01-23T10:15:55.363Z,136.23
2018-01-23T10:18:22.954Z,125.60
2018-01-23T10:20:50.587Z,130.03
2018-01-23T10:23:18.178Z,116.03
2018-01-23T10:25:45.790Z,107.83
2018-01-23T10:28:13.378Z,130.03
2018-01-23T10:30:40.988Z,112.70
2018-01-23T10:33:08.587Z,126.93
2018-01-23T10:35:36.196Z,135.40
2018-01-23T10:38:03.813Z,131.67
2018-01-23T10:40:31.475Z,134.33
2018-01-23T10:42:59.138Z,130.00
2018-01-23T10:45:26.747Z,122.60
2018-01-23T10:47:54.330Z,130.13
2018-01-23T10:50:22.023Z,135.87
2018-01-23T10:52:49.606Z,143.30
2018-01-23T10:55:18.067Z,140.57
2018-01-23T10:57:45.654Z,140.10
2018-01-23T11:00:14.110Z,127.13
2018-01-23T11:02:41.770Z,136.70
2018-01-23T11:05:09.359Z,127.40
2018-01-23T11:07:37.738Z,149.23
2018-01-23T11:10:06.095Z,136.50
2018-01-23T11:12:33.754Z,127.40
2018-01-23T11:15:02.138Z,100.43
2018-01-23T11:17:29.796Z,128.50
2018-01-23T11:19:57.459Z,132.27
2018-01-23T11:22:25.123Z,135.03
2018-01-23T11:24:52.715Z,137.70
2018-01-23T11:27:21.167Z,131.13
2018-01-23T11:29:48.827Z,139.23
2018-01-23T11:32:17.938Z,123.77
2018-01-23T11:34:45.586Z,119.47
2018-01-23T11:37:13.246Z,117.67
2018-01-23T11:39:40.910Z,110.90
2018-01-23T11:42:08.574Z,124.17
2018-01-23T11:44:36.159Z,101.97
2018-01-23T11:47:04.534Z,99.53
2018-01-23T11:49:32.995Z,120.93
2018-01-23T11:52:00.660Z,103.50
2018-01-23T11:54:28.262Z,110.70
2018-01-23T11:56:55.850Z,115.80
2018-01-23T11:59:23.546Z,124.57
2018-01-23T12:01:51.131Z,123.70
2018-01-23T12:04:19.510Z,109.17
2018-01-23T12:06:47.966Z,112.07
2018-01-23T12:09:15.630Z,119.80
2018-01-23T12:11:43.219Z,149.47
2018-01-23T12:14:11.675Z,169.70
2018-01-23T12:16:39.337Z,180.83
2018-01-23T12:19:06.956Z,124.90
2018-01-23T12:21:34.559Z,111.20
2018-01-23T12:24:02.167Z,116.80
2018-01-23T12:26:30.199Z,106.03
2018-01-23T12:28:57.854Z,106.70
2018-01-23T12:31:25.522Z,102.50
2018-01-23T12:33:53.179Z,97.97
2018-01-23T12:36:20.766Z,98.87
2018-01-23T12:38:49.144Z,119.37
2018-01-23T12:41:17.507Z,100.83
2018-01-23T12:43:45.164Z,89.80
2018-01-23T12:46:13.375Z,88.50
2018-01-23T12:48:41.727Z,92.87
2018-01-23T12:51:09.339Z,82.77
2018-01-23T12:53:36.943Z,87.63
2018-01-23T12:56:04.605Z,108.73
2018-01-23T12:58:32.230Z,97.80
2018-01-23T13:00:59.835Z,84.37
2018-01-23T13:03:27.436Z,88.13
2018-01-23T13:05:55.144Z,90.57
2018-01-23T13:08:22.726Z,82.50
2018-01-23T13:10:51.106Z,71.97
2018-01-23T13:13:18.690Z,88.10
2018-01-23T13:15:46.302Z,94.10
2018-01-23T13:18:13.954Z,89.00
2018-01-23T13:20:41.539Z,86.23
2018-01-23T13:23:09.203Z,78.70
2018-01-23T13:25:36.831Z,90.53
2018-01-23T13:28:04.527Z,101.30
2018-01-23T13:30:32.194Z,89.83
2018-01-23T13:32:59.802Z,105.40
2018-01-23T13:35:27.387Z,97.83
2018-01-23T13:37:55.142Z,97.10
2018-01-23T13:40:22.726Z,91.03
2018-01-23T13:42:50.333Z,163.03
2018-01-23T13:45:18.680Z,115.50
2018-01-23T13:47:46.281Z,97.10
2018-01-23T13:50:13.875Z,106.67
2018-01-23T13:52:41.489Z,94.63
2018-01-23T13:55:09.839Z,102.43
2018-01-23T13:57:37.422Z,90.37
2018-01-23T14:00:05.804Z,86.77
2018-01-23T14:02:34.155Z,105.80
2018-01-23T14:05:01.765Z,98.67
2018-01-23T14:07:29.390Z,94.00
2018-01-23T14:09:56.994Z,104.63
2018-01-23T14:12:24.612Z,102.20
2018-01-23T14:14:52.270Z,93.03
2018-01-23T14:17:19.936Z,94.33
2018-01-23T14:19:47.551Z,106.23
2018-01-23T14:22:15.159Z,107.10
2018-01-23T14:24:42.767Z,87.87
2018-01-23T14:27:10.382Z,114.63
2018-01-23T14:29:37.987Z,95.30
2018-01-23T14:32:05.603Z,103.90
2018-01-23T14:34:34.015Z,108.20
2018-01-23T14:37:02.467Z,110.43
2018-01-23T14:39:30.126Z,86.57
2018-01-23T14:41:57.743Z,93.90
2018-01-23T14:44:25.330Z,90.30
2018-01-23T14:46:52.947Z,98.87
2018-01-23T14:49:20.538Z,107.53
2018-01-23T14:51:48.143Z,97.10
2018-01-23T14:54:15.732Z,79.77
2018-01-23T14:56:43.344Z,116.97
2018-01-23T14:59:10.935Z,95.53
2018-01-23T15:01:39.311Z,115.00
2018-01-23T15:04:06.963Z,95.97
2018-01-23T15:06:34.618Z,91.00
2018-01-23T15:09:02.204Z,92.73
2018-01-23T15:11:30.579Z,110.27
2018-01-23T15:13:59.042Z,104.77
2018-01-23T15:16:27.415Z,95.17
2018-01-23T15:18:55.086Z,82.77
2018-01-23T15:21:22.694Z,105.73
2018-01-23T15:23:50.302Z,123.53
2018-01-23T15:26:17.891Z,110.33
2018-01-23T15:28:46.276Z,107.00
2018-01-23T15:31:14.630Z,120.10
2018-01-23T15:33:42.230Z,92.87
2018-01-23T15:36:09.824Z,126.43
2018-01-23T15:38:37.430Z,102.30
2018-01-23T15:41:05.782Z,113.07
2018-01-23T15:43:33.391Z,114.40
2018-01-23T15:46:00.982Z,118.23
2018-01-23T15:48:28.594Z,113.50
2018-01-23T15:50:56.959Z,124.20
2018-01-23T15:53:24.567Z,120.63
2018-01-23T15:55:52.184Z,109.40
2018-01-23T15:58:19.791Z,109.80
2018-01-23T16:00:47.379Z,120.33
2018-01-23T16:03:15.120Z,132.93
2018-01-23T16:05:42.705Z,118.80
2018-01-23T16:08:10.315Z,164.27
2018-01-23T16:10:38.672Z,120.30
2018-01-23T16:13:06.335Z,144.57
2018-01-23T16:15:33.991Z,145.83
2018-01-23T16:18:01.578Z,152.97
2018-01-23T16:20:30.039Z,152.77
2018-01-23T16:22:57.698Z,139.07
2018-01-23T16:25:25.303Z,141.80
2018-01-23T16:27:53.438Z,136.07
2018-01-23T16:30:21.099Z,149.97
2018-01-23T16:32:48.763Z,137.47
2018-01-23T16:35:16.422Z,136.33
2018-01-23T16:37:44.154Z,153.30
2018-01-23T16:40:11.851Z,135.70
2018-01-23T16:42:40.946Z,133.13
2018-01-23T16:45:08.612Z,155.23
2018-01-23T16:47:36.198Z,179.03
2018-01-23T16:50:04.711Z,156.03
2018-01-23T16:52:32.318Z,159.30
2018-01-23T16:54:59.923Z,164.23
2018-01-23T16:57:27.508Z,173.03
2018-01-23T16:59:55.118Z,167.30
2018-01-23T17:02:23.583Z,133.23
2018-01-23T17:04:51.247Z,158.13
2018-01-23T17:07:18.908Z,146.83
2018-01-23T17:09:46.494Z,177.13
2018-01-23T17:12:14.876Z,159.17
2018-01-23T17:14:43.226Z,152.70
2018-01-23T17:17:10.891Z,159.60
2018-01-23T17:19:38.605Z,151.93
2018-01-23T17:22:06.966Z,150.10
2018-01-23T17:24:35.414Z,139.83
2018-01-23T17:27:03.022Z,158.83
2018-01-23T17:29:30.639Z,151.77
2018-01-23T17:31:58.305Z,135.70
2018-01-23T17:34:25.894Z,147.47
2018-01-23T17:36:54.275Z,164.70
2018-01-23T17:39:22.722Z,150.40
2018-01-23T17:41:50.331Z,167.63
2018-01-23T17:44:17.915Z,134.90
2018-01-23T17:46:45.498Z,188.00
2018-01-23T17:49:13.172Z,147.27
2018-01-23T17:51:40.839Z,146.40
2018-01-23T17:54:08.494Z,130.63
2018-01-23T17:56:36.082Z,158.80
2018-01-23T17:59:04.543Z,139.73
2018-01-23T18:01:32.202Z,154.20
2018-01-23T18:03:59.811Z,115.57
2018-01-23T18:06:27.423Z,123.63
2018-01-23T18:08:55.030Z,139.17
2018-01-23T18:11:22.647Z,144.10
2018-01-23T18:13:50.258Z,136.63
2018-01-23T18:16:17.879Z,131.10
2018-01-23T18:18:45.534Z,168.37
2018-01-23T18:21:13.195Z,155.90
2018-01-23T18:23:40.859Z,163.23
2018-01-23T18:26:08.446Z,124.60
2018-01-23T18:28:36.822Z,131.63
2018-01-23T18:31:05.319Z,108.93
2018-01-23T18:33:33.690Z,155.83
2018-01-23T18:36:02.143Z,144.10
2018-01-23T18:38:30.551Z,174.85
2018-01-23T18:40:59.003Z,154.13
2018-01-23T18:43:26.667Z,125.97
2018-01-23T18:45:54.278Z,151.83
2018-01-23T18:48:21.872Z,154.67
2018-01-23T18:50:49.551Z,143.27
2018-01-23T18:53:17.214Z,121.50
2018-01-23T18:55:44.881Z,116.73
2018-01-23T18:58:13.235Z,138.93
2018-01-23T19:00:40.919Z,140.10
2018-01-23T19:03:08.671Z,127.57
2018-01-23T19:05:36.278Z,128.57
2018-01-23T19:08:04.630Z,104.63
2018-01-23T19:10:32.234Z,100.87
2018-01-23T19:12:59.819Z,131.53
2018-01-23T19:15:27.472Z,134.83
2018-01-23T19:17:55.242Z,91.63
2018-01-23T19:20:22.939Z,96.80
2018-01-23T19:22:50.606Z,113.23
2018-01-23T19:25:18.219Z,110.37
2018-01-23T19:27:45.810Z,105.20
2018-01-23T19:30:13.395Z,95.63
2018-01-23T19:32:41.046Z,104.53
2018-01-23T19:35:08.711Z,107.40
2018-01-23T19:37:36.318Z,100.07
2018-01-23T19:40:03.903Z,95.30
2018-01-23T19:42:31.594Z,112.00
2018-01-23T19:44:59.258Z,105.07
2018-01-23T19:47:26.922Z,90.13
2018-01-23T19:49:54.574Z,105.77
2018-01-23T19:52:22.181Z,87.50
2018-01-23T19:54:50.530Z,109.67
2018-01-23T19:57:18.186Z,99.23
2018-01-23T19:59:45.780Z,126.97
2018-01-23T20:02:13.516Z,108.30
2018-01-23T20:04:41.179Z,86.20
2018-01-23T20:07:08.840Z,78.33
2018-01-23T20:09:37.318Z,72.40
2018-01-23T20:12:04.909Z,88.77
2018-01-23T20:14:33.359Z,82.27
2018-01-23T20:17:01.027Z,87.20
2018-01-23T20:19:28.690Z,104.83
2018-01-23T20:21:56.350Z,74.47
2018-01-23T20:24:23.959Z,64.03
2018-01-23T20:26:51.581Z,92.57
2018-01-23T20:29:19.186Z,90.33
2018-01-23T20:31:46.803Z,69.87
2018-01-23T20:34:14.415Z,74.27
2018-01-23T20:36:42.022Z,64.77
2018-01-23T20:39:09.686Z,78.57
2018-01-23T20:41:37.350Z,76.00
2018-01-23T20:44:04.955Z,69.23
2018-01-23T20:46:32.572Z,57.37
2018-01-23T20:49:00.163Z,90.13
2018-01-23T20:51:28.617Z,70.33
2018-01-23T20:53:56.211Z,70.77
2018-01-23T20:56:23.834Z,62.20
2018-01-23T20:58:51.419Z,61.40
2018-01-23T21:01:19.795Z,62.77
2018-01-23T21:03:48.147Z,59.83
2018-01-23T21:06:15.819Z,62.83
2018-01-23T21:08:43.403Z,58.00
2018-01-23T21:11:11.774Z,59.00
2018-01-23T21:13:39.359Z,70.63
2018-01-23T21:16:06.966Z,53.73
2018-01-23T21:18:34.551Z,61.27
2018-01-23T21:21:03.674Z,57.43
2018-01-23T21:23:32.023Z,47.60
2018-01-23T21:25:59.683Z,53.43
2018-01-23T21:28:27.275Z,48.13
2018-01-23T21:30:55.642Z,62.47
2018-01-23T21:33:23.990Z,48.10
2018-01-23T21:35:51.602Z,53.10
2018-01-23T21:38:19.187Z,45.13
2018-01-23T21:40:46.886Z,54.30
2018-01-23T21:43:14.616Z,39.73
2018-01-23T21:45:42.213Z,44.23
2018-01-23T21:48:09.875Z,48.30
2018-01-23T21:50:37.467Z,46.70
2018-01-23T21:53:05.851Z,55.00
2018-01-23T21:55:34.299Z,46.77
2018-01-23T21:58:01.903Z,41.93
2018-01-23T22:00:29.518Z,41.10
2018-01-23T22:02:57.159Z,55.83
2018-01-23T22:05:24.847Z,49.30
2018-01-23T22:07:52.454Z,48.57
2018-01-23T22:10:20.036Z,50.00
2018-01-23T22:12:47.731Z,43.60
2018-01-23T22:15:15.359Z,40.73
2018-01-23T22:17:43.058Z,45.97
2018-01-23T22:20:10.719Z,52.93
2018-01-23T22:22:38.383Z,42.50
2018-01-23T22:25:06.767Z,42.47
2018-01-23T22:27:34.375Z,41.90
2018-01-23T22:30:01.956Z,50.47
2018-01-23T22:32:29.559Z,42.40
2018-01-23T22:34:57.903Z,43.00
2018-01-23T22:37:25.586Z,48.47
2018-01-23T22:39:53.194Z,34.53
2018-01-23T22:42:20.815Z,37.67
2018-01-23T22:44:48.418Z,37.07
2018-01-23T22:47:16.039Z,40.93
2018-01-23T22:49:43.651Z,38.60
2018-01-23T22:52:11.235Z,39.77
2018-01-23T22:54:38.970Z,35.30
2018-01-23T22:57:07.303Z,29.23
2018-01-23T22:59:34.906Z,41.33
2018-01-23T23:02:02.528Z,39.03
2018-01-23T23:04:30.187Z,27.30
2018-01-23T23:06:57.774Z,24.37
2018-01-23T23:09:26.231Z,34.20
2018-01-23T23:11:53.859Z,27.07
2018-01-23T23:14:21.554Z,30.63
2018-01-23T23:16:49.218Z,36.50
2018-01-23T23:19:16.882Z,23.20
2018-01-23T23:21:44.546Z,21.37
2018-01-23T23:24:12.922Z,25.73
2018-01-23T23:26:40.527Z,25.77
2018-01-23T23:29:08.110Z,34.93
2018-01-23T23:31:35.711Z,29.07
2018-01-23T23:34:04.902Z,25.67
2018-01-23T23:36:32.502Z,27.97
2018-01-23T23:39:00.846Z,25.73
2018-01-23T23:41:28.507Z,24.13
2018-01-23T23:43:56.166Z,29.93
2018-01-23T23:46:23.770Z,29.97
2018-01-23T23:48:52.123Z,25.23
2018-01-23T23:51:20.495Z,26.53
2018-01-23T23:53:48.074Z,37.00
2018-01-23T23:56:16.446Z,29.90
2018-01-23T23:58:44.815Z,26.53
